L M Clayton Airport Wolf Point US
ICAO: KOLF
IATA: OLF
Category: Medium
Scheduled Services: No

Elevation: 1986 ft
TransAlt. 18000 ft.

Airport Communications:
ASOS:118.325
SALT LAKE CITY CNTR:126.85
GREAT FALLS RDO:122.45
CTAF/UNICOM:122.8

KOLF Zoom In..

If you have problems with the map follow the link
https://www.worldairports.se/pages/airport.php?
ICAO=KOLF

Runways:

(A) RW 11 length 5091 ft width 100 ft
---- / hdg 109

(B) RW 29 length 5091 ft width 100 ft
---- / hdg 289

Location; KOLF
Day. 25 / Time. 08.53 Zulu
* Altimeter: 29.81
* Temperature: -03° c. -26.6°f.
* Wind from: 000° Speed 00 kn.
Dewpoint: -04° c.
Visibility: 10 Statute Miles.
Clouds: Broken 7000 ft.
Clouds: Broken 9000 ft.
Clouds: Overcast 11000 ft.

KOLF 250853Z AUTO 00000KT 10SM BKN070 BKN090 OVC110 M03/M04 A2981 RMK AO2 SLP117 T10281039 55001


Wind - Calm.

 
 
jpsmedia worldairports.se 2020   terms of use